Latest Weather Observations for Coonamble

IDN60801

Issued at 5:32 pm EDT Saturday 6 February 2016 (issued every 30 minutes, with the page automatically refreshed every 10 minutes)

About weather observations | Map of weather stations | Latest weather observations for NSW | Other Formats
Station Details ID: 051161 Name: COONAMBLE AIRPORT AWS Lat: -30.98 Lon: 148.38 Height: 181.3 m
Data from the previous 72 hours. | See also: Recent months at Coonamble
Date/Time
EDT
Temp
°C
App
Temp
°C
Dew
Point
Rel
Hum
%
Delta-T
°C
Wind Press
QNH
hPa
Press
MSL
hPa
Rain
since 9 am
mm
Dir
 
Spd
km/h
Gust
km/h
Spd
kts
Gust
kts
06/05:30pm 28.3 26.0 14.2 42 8.5 SSE 19 24 10 13 1010.5 1009.5 0.0
06/05:00pm 30.8 29.9 12.7 33 10.8 SSE 9 17 5 9 1010.5 1009.5 0.0
06/04:30pm 30.9 30.1 12.8 33 10.8 SE 9 15 5 8 1010.8 1009.8 0.0
06/04:00pm 30.7 29.6 13.0 33 10.6 ENE 11 19 6 10 1010.9 1009.9 0.0
06/03:30pm 30.2 28.8 13.5 36 10.1 E 13 19 7 10 1011.2 1010.2 0.0
06/03:00pm 30.6 30.3 15.5 40 9.4 ESE 11 17 6 9 1011.8 1010.7 0.0
06/02:30pm 29.9 28.3 14.0 37 9.6 NNE 15 28 8 15 1012.1 1011.0 0.0
06/02:00pm 29.6 27.8 13.4 37 9.7 ENE 15 22 8 12 1012.4 1011.3 0.0
06/01:30pm 29.1 26.5 13.3 37 9.4 ENE 19 33 10 18 1012.8 1011.7 0.0
06/01:00pm 29.2 27.1 15.3 42 8.6 E 20 32 11 17 1013.3 1012.2 0.0
06/12:30pm 28.4 26.5 15.7 46 7.9 NE 20 32 11 17 1013.8 1012.7 0.0
06/12:00pm 27.8 25.9 15.1 46 7.8 E 19 28 10 15 1014.0 1012.9 0.0
06/11:30am 27.4 25.5 15.1 47 7.5 E 19 30 10 16 1014.2 1013.1 0.0
06/11:00am 26.6 24.3 14.7 48 7.2 E 20 32 11 17 1014.4 1013.3 0.0
06/10:30am 25.6 22.5 14.4 50 6.7 E 24 37 13 20 1014.7 1013.6 0.0
06/10:00am 25.1 21.0 13.9 49 6.6 E 28 37 15 20 1014.6 1013.5 0.0
06/09:30am 24.3 21.0 14.1 53 6.1 E 24 35 13 19 1014.6 1013.5 0.0
06/09:00am 23.0 21.4 15.1 61 4.7 E 17 24 9 13 1014.7 1013.6 0.0
06/08:30am 21.8 21.9 15.4 67 3.8 E 9 19 5 10 1014.6 1013.5 0.0
06/08:00am 19.8 20.4 15.9 78 2.3 SW 7 9 4 5 1014.4 1013.3 0.0
06/07:30am 18.2 20.6 17.0 93 0.7 CALM 0 0 0 0 1013.9 1012.8 0.0
06/07:00am 17.7 19.4 15.3 86 1.4 CALM 0 0 0 0 1013.4 1012.3 0.0
06/06:30am 17.2 17.8 15.2 88 1.2 S 6 7 3 4 1013.1 1012.0 0.0
06/06:00am 17.6 17.9 15.0 85 1.5 SSE 7 9 4 5 1012.9 1011.8 0.0
06/05:30am 18.8 18.9 14.5 76 2.5 ESE 7 9 4 5 1012.7 1011.6 0.0
06/05:00am 19.0 18.3 14.3 74 2.7 E 11 15 6 8 1012.5 1011.4 0.0
06/04:30am 19.5 18.0 14.3 72 3.0 E 15 24 8 13 1012.4 1011.3 0.0
06/04:00am 19.7 17.2 14.1 70 3.3 E 20 26 11 14 1012.3 1011.2 0.0
06/03:30am 20.0 17.1 13.9 68 3.5 E 22 30 12 16 1012.5 1011.4 0.0
06/03:00am 20.2 17.7 13.6 66 3.8 E 19 26 10 14 1012.6 1011.5 0.0
06/02:30am 20.8 17.7 13.5 63 4.2 E 22 32 12 17 1012.5 1011.4 0.0
06/02:00am 20.9 17.8 13.4 62 4.3 E 22 32 12 17 1012.9 1011.8 0.0
06/01:30am 20.9 18.2 13.4 62 4.3 E 20 32 11 17 1012.9 1011.8 0.0
06/01:00am 21.1 17.6 13.3 61 4.5 E 24 37 13 20 1013.1 1012.0 0.0
06/12:30am 21.4 18.3 13.3 60 4.7 E 22 32 12 17 1013.3 1012.2 0.0
06/12:00am 21.6 19.4 13.2 59 4.9 E 17 24 9 13 1013.3 1012.2 0.0
 
Date/Time
EDT
Temp
°C
App
Temp
°C
Dew
Point
Rel
Hum
%
Delta-T
°C
Wind Press
QNH
hPa
Press
MSL
hPa
Rain
since 9 am
mm
Dir
 
Spd
km/h
Gust
km/h
Spd
kts
Gust
kts
05/11:30pm 22.1 19.3 13.2 57 5.2 ESE 20 33 11 18 1013.3 1012.2 0.0
05/11:00pm 22.4 19.3 13.5 57 5.2 ESE 22 33 12 18 1013.1 1012.0 0.0
05/10:30pm 23.0 20.0 13.8 56 5.4 ESE 22 32 12 17 1013.0 1011.9 0.0
05/10:00pm 23.8 20.5 13.9 54 5.8 ESE 24 35 13 19 1012.8 1011.7 0.0
05/09:30pm 23.6 22.0 15.1 59 5.1 SE 17 24 9 13 1012.5 1011.4 0.0
05/09:00pm 24.9 23.0 14.1 51 6.4 ESE 17 24 9 13 1012.0 1010.9 0.0
05/08:30pm 25.8 22.9 13.0 45 7.5 E 20 28 11 15 1011.3 1010.3 0.0
05/08:00pm 26.9 22.3 12.2 40 8.6 E 28 37 15 20 1010.7 1009.7 0.0
05/07:30pm 28.0 24.1 12.0 37 9.3 E 24 33 13 18 1010.3 1009.2 0.0
05/07:00pm 28.8 24.9 12.2 35 9.8 E 24 35 13 19 1009.8 1008.7 0.0
05/06:30pm 28.7 25.6 12.2 36 9.7 E 20 30 11 16 1009.6 1008.5 0.0
05/06:00pm 30.0 28.8 12.9 35 10.2 SE 11 17 6 9 1009.3 1008.2 0.0
05/05:30pm 30.8 28.8 14.0 36 10.2 SE 17 26 9 14 1009.2 1008.1 0.0
05/05:00pm 30.6 29.7 12.5 33 10.8 SE 9 17 5 9 1009.5 1008.4 0.0
05/04:30pm 29.9 28.0 11.9 33 10.6 ESE 13 19 7 10 1009.8 1008.7 0.0
05/04:00pm 30.1 29.2 13.8 37 9.9 ESE 11 15 6 8 1010.2 1009.1 0.0
05/03:30pm 30.6 29.1 12.0 32 11.0 S 11 19 6 10 1010.4 1009.3 0.0
05/03:00pm 30.3 29.6 14.4 38 9.7 SE 11 20 6 11 1010.8 1009.8 0.0
05/02:30pm 29.4 27.4 11.5 33 10.4 SE 13 24 7 13 1011.2 1010.2 0.0
05/02:00pm 29.2 28.6 13.4 38 9.5 SE 9 19 5 10 1011.8 1010.7 0.0
05/01:30pm 28.6 28.2 15.2 44 8.2 SE 11 19 6 10 1012.1 1011.0 0.0
05/01:00pm 27.3 25.2 12.5 40 8.7 S 15 24 8 13 1012.4 1011.3 0.0
05/12:30pm 26.8 25.1 13.5 44 7.9 S 15 20 8 11 1012.7 1011.6 0.0
05/12:00pm 25.7 25.7 13.5 46 7.2 SSE 6 11 3 6 1012.9 1011.8 0.0
05/11:30am 24.8 24.2 14.6 53 6.1 SSE 11 17 6 9 1013.2 1012.1 0.0
05/11:00am 24.1 23.6 13.9 53 6.0 SE 9 17 5 9 1013.4 1012.3 0.0
05/10:30am 22.8 22.6 13.6 56 5.4 SSW 7 9 4 5 1013.5 1012.4 0.0
05/10:00am 21.7 21.6 13.3 59 4.9 WNW 6 9 3 5 1013.4 1012.3 0.0
05/09:30am 21.3 22.1 13.7 62 4.4 WSW 2 6 1 3 1013.4 1012.3 0.0
05/09:00am 20.3 20.3 13.7 66 3.8 ENE 6 9 3 5 1013.2 1012.1 0.0
05/08:30am 19.9 20.3 13.6 67 3.6 N 4 7 2 4 1013.1 1012.0 0.0
05/08:00am 19.3 20.6 14.1 72 3.0 CALM 0 0 0 0 1012.6 1011.5 0.0
05/07:30am 18.0 19.9 15.8 87 1.3 CALM 0 0 0 0 1012.3 1011.2 0.0
05/07:00am 17.5 17.9 14.8 84 1.6 SE 6 7 3 4 1012.1 1011.0 0.0
05/06:30am 17.3 17.5 14.8 85 1.5 SSE 7 9 4 5 1011.7 1010.6 0.0
05/06:00am 17.4 17.3 14.9 85 1.5 SSE 9 11 5 6 1011.4 1010.4 0.0
05/05:30am 17.3 17.1 14.8 85 1.5 SSE 9 11 5 6 1011.2 1010.2 0.0
05/05:00am 17.5 16.7 14.0 80 2.0 SSE 11 13 6 7 1010.9 1009.9 0.0
05/04:30am 17.7 16.9 14.0 79 2.1 SSE 11 15 6 8 1010.6 1009.6 0.0
05/04:00am 18.2 16.6 13.9 76 2.5 SSE 15 19 8 10 1010.6 1009.6 0.0
05/03:30am 18.5 16.9 14.0 75 2.6 SE 15 20 8 11 1010.7 1009.7 0.0
05/03:00am 18.9 16.7 14.4 75 2.6 SE 19 24 10 13 1010.6 1009.6 0.0
05/02:30am 19.2 17.3 15.1 77 2.4 SSE 19 22 10 12 1010.6 1009.6 0.0
05/02:00am 19.1 18.7 16.1 83 1.8 SE 13 17 7 9 1010.9 1009.9 0.0
05/01:30am 19.4 19.5 16.4 83 1.8 SE 11 15 6 8 1011.1 1010.1 0.0
05/01:00am 19.8 20.1 15.9 78 2.3 SE 9 13 5 7 1011.4 1010.4 0.0
05/12:30am 20.8 19.8 15.6 72 3.1 ESE 15 20 8 11 1011.4 1010.4 0.0
05/12:00am 20.7 20.2 15.9 74 2.9 ESE 13 19 7 10 1011.2 1010.2 0.0
 
Date/Time
EDT
Temp
°C
App
Temp
°C
Dew
Point
Rel
Hum
%
Delta-T
°C
Wind Press
QNH
hPa
Press
MSL
hPa
Rain
since 9 am
mm
Dir
 
Spd
km/h
Gust
km/h
Spd
kts
Gust
kts
04/11:30pm 21.3 20.1 16.0 72 3.2 SE 17 22 9 12 1010.9 1009.9 0.0
04/11:00pm 21.6 20.8 17.0 75 2.8 SE 17 22 9 12 1010.8 1009.8 0.0
04/10:30pm 21.6 21.5 17.0 75 2.8 SE 13 17 7 9 1010.6 1009.6 0.0
04/10:00pm 22.8 21.7 16.4 67 3.9 ESE 17 22 9 12 1010.2 1009.1 0.0
04/09:30pm 23.1 21.8 16.9 68 3.8 SE 19 24 10 13 1009.6 1008.5 0.0
04/09:00pm 24.0 22.5 16.8 64 4.5 SE 20 30 11 16 1009.1 1008.0 0.0
04/08:30pm 24.9 23.1 16.9 61 5.0 SE 22 33 12 18 1008.3 1007.2 0.0
04/08:00pm 25.9 23.9 17.3 59 5.4 SE 24 32 13 17 1007.6 1006.5 0.0
04/07:30pm 27.2 24.0 16.2 51 6.8 SE 28 43 15 23 1007.0 1005.9 0.0
04/07:00pm 28.3 24.3 16.2 47 7.6 SSE 32 41 17 22 1006.5 1005.4 0.0
04/06:30pm 29.2 26.8 17.4 49 7.5 SE 26 35 14 19 1006.0 1004.9 0.0
04/06:00pm 29.0 28.9 19.6 57 6.2 SSE 19 24 10 13 1005.9 1004.8 0.0
04/05:30pm 29.1 28.1 18.8 53 6.7 SSE 22 28 12 15 1005.9 1004.8 0.0
04/05:00pm 28.1 28.2 19.1 58 5.9 SE 17 24 9 13 1006.0 1004.9 0.0
04/04:30pm 26.6 26.2 19.0 63 4.9 SE 19 26 10 14 1006.1 1005.0 0.0
04/04:00pm 25.8 24.1 19.9 70 3.9 SE 28 41 15 22 1006.5 1005.4 0.0
04/03:30pm 25.5 23.2 19.4 69 4.0 SE 30 39 16 21 1006.7 1005.6 0.0
04/03:00pm 26.3 25.3 19.7 67 4.3 SSE 24 35 13 19 1006.6 1005.5 0.0
04/02:30pm 27.7 26.5 18.4 57 6.0 S 22 32 12 17 1006.6 1005.5 0.0
04/02:00pm 31.8 30.0 18.7 45 8.6 ENE 26 37 14 20 1006.2 1005.1 0.0
04/01:30pm 30.9 28.6 17.6 45 8.5 ENE 26 35 14 19 1006.5 1005.4 0.0
04/01:00pm 30.8 29.8 17.5 45 8.5 E 19 28 10 15 1006.8 1005.7 0.0
04/12:30pm 30.4 29.4 17.5 46 8.3 E 19 28 10 15 1007.1 1006.0 0.0
04/12:00pm 30.0 29.2 18.4 49 7.5 E 20 32 11 17 1007.2 1006.1 0.0
04/11:30am 29.6 28.8 19.3 54 6.7 E 22 33 12 18 1007.2 1006.1 0.0
04/11:00am 28.7 26.5 18.8 55 6.4 E 28 41 15 22 1007.0 1005.9 0.0
04/10:30am 28.4 26.4 19.1 57 6.1 E 28 37 15 20 1006.9 1005.8 0.0
04/10:00am 28.0 29.2 20.0 61 5.3 ESE 13 32 7 17 1007.0 1005.9 0.0
04/09:30am 25.8 28.0 20.4 72 3.6 ESE 9 13 5 7 1007.1 1006.0 0.0
04/09:00am 25.1 27.0 19.7 72 3.5 SSE 9 15 5 8 1007.0 1005.9 2.4
04/08:30am 24.0 26.0 19.9 78 2.7 SSE 9 13 5 7 1006.8 1005.7 2.4
04/08:00am 22.9 24.7 19.5 81 2.2 SSE 9 11 5 6 1006.3 1005.2 2.4
04/07:30am 21.6 23.2 19.9 90 1.1 SSE 11 13 6 7 1006.0 1004.9 2.4
04/07:00am 21.2 23.4 20.4 95 0.5 SE 9 13 5 7 1005.5 1004.4 2.4
04/06:30am 20.8 22.3 19.8 94 0.6 SSE 11 15 6 8 1005.1 1004.0 2.4
04/06:00am 21.4 21.6 19.3 88 1.3 SSE 17 22 9 12 1004.6 1003.5 2.4
04/05:30am 21.5 21.2 19.2 87 1.5 S 19 26 10 14 1004.1 1003.0 2.4
04/05:00am 21.2 21.4 19.3 89 1.2 SSW 17 22 9 12 1003.9 1002.8 2.4
04/04:30am 21.1 21.1 18.9 87 1.4 SSW 17 20 9 11 1003.7 1002.6 2.4
04/04:00am 21.2 21.3 18.4 84 1.8 SSW 15 20 8 11 1003.8 1002.7 2.4
04/03:30am 21.5 21.2 18.3 82 2.0 SSW 17 22 9 12 1003.8 1002.7 2.4
04/03:00am 21.9 21.0 18.3 80 2.3 SSW 20 28 11 15 1003.9 1002.8 2.4
04/02:30am 22.2 21.4 18.4 79 2.4 SSW 20 28 11 15 1003.9 1002.8 2.4
04/02:00am 22.5 21.9 18.5 78 2.5 SSW 19 24 10 13 1004.2 1003.1 2.4
04/01:30am 23.0 22.1 18.3 75 3.0 SSW 20 28 11 15 1004.6 1003.5 2.4
04/01:00am 23.4 21.8 18.3 73 3.2 SSW 24 32 13 17 1004.6 1003.5 2.4
04/12:30am 23.9 21.8 18.1 70 3.7 SSW 26 33 14 18 1004.6 1003.5 2.4
04/12:00am 24.7 22.7 18.4 68 4.0 SSW 26 35 14 19 1004.7 1003.6 2.4
 
Date/Time
EDT
Temp
°C
App
Temp
°C
Dew
Point
Rel
Hum
%
Delta-T
°C
Wind Press
QNH
hPa
Press
MSL
hPa
Rain
since 9 am
mm
Dir
 
Spd
km/h
Gust
km/h
Spd
kts
Gust
kts
03/11:30pm 25.7 23.4 18.4 64 4.7 SSW 28 35 15 19 1004.5 1003.4 2.4
03/11:00pm 26.6 24.5 19.0 63 4.9 SSW 28 39 15 21 1004.4 1003.3 2.4
03/10:59pm 26.7 24.7 19.1 63 4.9 SSW 28 39 15 21 1004.4 1003.3 2.4
03/10:30pm 26.0 27.6 20.8 73 3.4 SSW 13 15 7 8 1004.0 1002.9 2.4
03/10:00pm 26.4 27.9 20.5 70 3.9 SSW 13 17 7 9 1003.5 1002.4 2.4
03/09:30pm 27.1 27.6 20.0 65 4.7 SSW 17 19 9 10 1003.2 1002.1 2.4
03/09:00pm 27.7 28.5 19.8 62 5.2 SSW 15 17 8 9 1002.8 1001.7 2.4
03/08:30pm 29.0 28.8 19.3 55 6.3 SSW 19 22 10 12 1002.4 1001.3 2.4
03/08:00pm 29.9 29.6 19.6 54 6.8 SSW 20 30 11 16 1001.9 1000.8 2.4
03/07:30pm 31.2 31.3 19.9 51 7.5 SSW 19 26 10 14 1001.4 1000.3 2.4
03/07:00pm 32.2 34.9 22.9 58 6.5 S 13 19 7 10 1001.0 999.9 2.4
03/06:30pm 32.6 34.2 22.1 54 7.2 S 17 22 9 12 1000.7 999.5 2.4
03/06:00pm 33.1 34.9 22.5 53 7.3 SSW 17 24 9 13 1000.6 999.4 2.4

Other Formats:

Comma delimited format used in spreadsheet applications
http://www.bom.gov.au/fwo/IDN60801/IDN60801.95718.axf

JavaScript Object Notation format (JSON) in row-major order
http://www.bom.gov.au/fwo/IDN60801/IDN60801.95718.json